Time;durP1;ratioP1;P1;durP2;ratioP2;P2;SDS_P1;SDS_P2;PMS_P1;PMS_P2;Temp;Humidity;BMP_temperature;BMP_pressure;BME280_temperature;BME280_humidity;BME280_pressure;Samples;Min_cycle;Max_cycle;Signal;HPM_P1;HPM_P2
2021/04/09 00:08:40;;;;;;;9.35;4.70;;;0.80;99.90;;;;;;20904812;28;20571;-75
2021/04/09 00:18:41;;;;;;;10.75;5.15;;;0.50;99.90;;;;;;20887911;28;20029;-75
2021/04/09 00:28:42;;;;;;;9.27;4.28;;;0.50;99.90;;;;;;20905622;28;20051;-76
2021/04/09 00:38:43;;;;;;;7.78;4.25;;;0.20;99.90;;;;;;20907236;28;20060;-76
2021/04/09 00:48:44;;;;;;;6.65;4.05;;;0.50;99.90;;;;;;20920010;28;20404;-76
2021/04/09 00:58:46;;;;;;;9.82;4.07;;;0.60;99.90;;;;;;20922573;28;20117;-76
2021/04/09 01:08:47;;;;;;;8.65;4.45;;;0.30;99.90;;;;;;20917020;28;20043;-76
2021/04/09 01:18:52;;;;;;;5.65;3.42;;;0.20;99.90;;;;;;20916869;28;20112;-77
2021/04/09 01:29:21;;;;;;;8.88;3.60;;;0.20;99.90;;;;;;20918557;28;20112;-75
2021/04/09 01:39:37;;;;;;;6.70;3.55;;;0.40;99.90;;;;;;20899061;28;20040;-76
2021/04/09 01:49:39;;;;;;;6.70;2.97;;;0.20;99.90;;;;;;20912430;28;20033;-76
2021/04/09 01:59:41;;;;;;;6.30;3.20;;;0.30;99.90;;;;;;20912645;28;20037;-74
2021/04/09 02:09:43;;;;;;;8.77;3.97;;;0.40;99.90;;;;;;20911983;28;20044;-75
2021/04/09 02:19:44;;;;;;;9.93;4.68;;;0.50;99.90;;;;;;20912138;28;20463;-75
2021/04/09 02:29:45;;;;;;;10.32;4.85;;;0.60;99.90;;;;;;20911862;28;20029;-75
2021/04/09 02:39:52;;;;;;;6.60;3.15;;;0.50;99.90;;;;;;20910358;28;20087;-75
2021/04/09 02:50:05;;;;;;;11.15;3.45;;;0.50;99.90;;;;;;20939703;28;20392;-76
2021/04/09 03:00:07;;;;;;;4.47;2.90;;;0.50;99.90;;;;;;20993108;28;20067;-76
2021/04/09 03:10:13;;;;;;;5.15;2.88;;;0.50;99.90;;;;;;20994309;28;20047;-75
2021/04/09 03:20:14;;;;;;;11.88;4.43;;;0.40;99.90;;;;;;21003746;23;20131;-75
2021/04/09 03:30:17;;;;;;;6.22;3.65;;;0.40;99.90;;;;;;20972706;28;20426;-75
2021/04/09 03:40:19;;;;;;;12.27;4.72;;;0.40;99.90;;;;;;20984881;28;20122;-75
2021/04/09 03:50:19;;;;;;;6.63;4.47;;;0.30;99.90;;;;;;20974187;28;20032;-75
2021/04/09 04:00:21;;;;;;;9.85;4.15;;;0.30;99.90;;;;;;20985333;28;20534;-75
2021/04/09 04:10:22;;;;;;;9.10;4.85;;;0.20;99.90;;;;;;20990981;28;20402;-74
2021/04/09 04:20:23;;;;;;;11.57;4.40;;;0.10;99.90;;;;;;21001248;28;20028;-75
2021/04/09 04:30:24;;;;;;;8.65;4.20;;;0.10;99.90;;;;;;21005592;28;20074;-75
2021/04/09 04:40:26;;;;;;;10.25;4.00;;;0.10;99.90;;;;;;21004633;28;20543;-75
2021/04/09 04:50:27;;;;;;;13.07;4.40;;;0.20;99.90;;;;;;20983973;28;20051;-75
2021/04/09 05:00:28;;;;;;;11.65;4.25;;;0.30;99.90;;;;;;20988280;28;20032;-75
2021/04/09 05:10:29;;;;;;;8.10;4.18;;;0.30;99.90;;;;;;21002466;28;20037;-75
2021/04/09 05:20:29;;;;;;;11.80;5.43;;;0.20;99.90;;;;;;20961510;28;20024;-76
2021/04/09 05:30:30;;;;;;;11.48;3.67;;;0.20;99.90;;;;;;20991521;28;20041;-75
2021/04/09 05:40:31;;;;;;;9.38;4.10;;;0.40;99.90;;;;;;21001560;28;20029;-77
2021/04/09 05:50:35;;;;;;;9.27;3.92;;;0.70;99.90;;;;;;20977592;28;20406;-76
2021/04/09 06:00:36;;;;;;;9.68;4.10;;;0.90;99.90;;;;;;20957059;28;20387;-77
2021/04/09 06:10:38;;;;;;;9.85;4.18;;;1.10;99.90;;;;;;20966319;28;20020;-76
2021/04/09 06:20:38;;;;;;;7.13;4.40;;;1.20;99.90;;;;;;20997785;28;20089;-76
2021/04/09 06:30:39;;;;;;;7.80;4.45;;;1.30;99.90;;;;;;20997679;28;20025;-76
2021/04/09 06:40:40;;;;;;;;;;;1.40;99.90;;;;;;20995816;28;20031;-76
2021/04/09 06:50:41;;;;;;;11.95;4.95;;;1.70;99.90;;;;;;20993719;28;19908;-76
2021/04/09 07:00:42;;;;;;;;;;;2.00;99.90;;;;;;20993311;28;20115;-76
2021/04/09 07:10:43;;;;;;;11.25;4.45;;;2.50;99.90;;;;;;20991699;28;19908;-75
2021/04/09 07:20:45;;;;;;;14.25;4.72;;;3.00;99.90;;;;;;20992515;28;20438;-75
2021/04/09 07:30:56;;;;;;;7.80;4.07;;;3.30;99.90;;;;;;20992059;28;20059;-75
2021/04/09 07:40:59;;;;;;;;;;;4.10;99.90;;;;;;20992047;28;20090;-76
2021/04/09 07:51:01;;;;;;;14.05;4.85;;;4.80;99.90;;;;;;20997717;28;20397;-76
2021/04/09 08:01:04;;;;;;;12.75;5.28;;;5.60;99.90;;;;;;21007897;28;20513;-75
2021/04/09 08:11:37;;;;;;;10.63;4.25;;;5.80;99.90;;;;;;21007922;28;20044;-76
2021/04/09 08:21:41;;;;;;;9.13;3.97;;;6.00;99.90;;;;;;21000889;28;20063;-76
2021/04/09 08:31:42;;;;;;;12.20;5.00;;;6.60;99.90;;;;;;21005462;28;20028;-76
2021/04/09 08:41:45;;;;;;;5.97;3.77;;;6.80;99.90;;;;;;21004270;28;20037;-76
2021/04/09 08:51:47;;;;;;;8.38;3.80;;;6.90;99.90;;;;;;21003232;28;20713;-76
2021/04/09 09:02:27;;;;;;;8.70;3.78;;;7.90;99.90;;;;;;21000324;28;20390;-76
2021/04/09 09:12:27;;;;;;;7.70;3.50;;;9.00;99.90;;;;;;21000056;28;20509;-76
2021/04/09 09:22:45;;;;;;;7.13;3.47;;;9.60;99.90;;;;;;21010156;23;20060;-79
2021/04/09 09:32:46;;;;;;;7.43;3.83;;;11.20;99.90;;;;;;21009888;28;20041;-79
2021/04/09 09:42:47;;;;;;;9.48;4.03;;;12.70;99.90;;;;;;20998335;28;20037;-79
2021/04/09 09:53:07;;;;;;;10.20;3.93;;;13.20;99.90;;;;;;20933038;28;20072;-80
2021/04/09 10:03:28;;;;;;;8.30;4.22;;;14.60;99.90;;;;;;20969392;28;20044;-80
2021/04/09 10:13:32;;;;;;;11.73;4.05;;;15.20;96.00;;;;;;21006082;28;20037;-80
2021/04/09 10:23:33;;;;;;;6.72;3.47;;;16.30;95.30;;;;;;21003229;28;20032;-81
2021/04/09 10:33:39;;;;;;;8.68;3.78;;;16.80;92.20;;;;;;20986252;28;20028;-82
2021/04/09 10:43:40;;;;;;;9.98;3.53;;;16.80;95.20;;;;;;20932981;28;20505;-82
2021/04/09 10:53:41;;;;;;;8.05;3.35;;;17.10;89.20;;;;;;20935488;28;20024;-79
2021/04/09 11:03:43;;;;;;;6.60;3.17;;;16.00;90.90;;;;;;20965305;28;20474;-80
2021/04/09 11:13:44;;;;;;;6.90;3.07;;;15.90;88.90;;;;;;20963937;28;20407;-79
2021/04/09 11:23:45;;;;;;;9.37;2.87;;;16.00;83.60;;;;;;20964579;28;20021;-80
2021/04/09 11:33:46;;;;;;;6.88;2.65;;;16.90;83.70;;;;;;20914353;28;20075;-79
2021/04/09 11:43:47;;;;;;;8.68;3.13;;;16.90;81.60;;;;;;20911904;28;20021;-79
2021/04/09 11:54:00;;;;;;;6.50;2.97;;;16.50;80.20;;;;;;20969729;28;20068;-80
2021/04/09 12:04:01;;;;;;;5.05;2.67;;;16.60;79.10;;;;;;20997928;28;20063;-80
2021/04/09 12:14:03;;;;;;;7.28;2.75;;;16.70;79.00;;;;;;20996746;28;20036;-80
2021/04/09 12:24:05;;;;;;;5.53;2.70;;;17.10;78.80;;;;;;20985934;28;20033;-80
2021/04/09 12:34:05;;;;;;;4.20;2.40;;;17.80;72.10;;;;;;20986362;28;20297;-79
2021/04/09 12:44:11;;;;;;;6.78;2.92;;;18.40;68.20;;;;;;20978760;28;20033;-80
2021/04/09 12:54:13;;;;;;;7.25;2.50;;;19.10;67.10;;;;;;20954833;28;20041;-80
2021/04/09 13:04:14;;;;;;;;;;;19.90;69.60;;;;;;20948317;28;20033;-80
2021/04/09 13:14:15;;;;;;;6.65;2.50;;;19.50;65.50;;;;;;20995835;28;20343;-80
2021/04/09 13:24:16;;;;;;;4.80;2.57;;;19.30;70.20;;;;;;20917903;28;20068;-80
2021/04/09 13:34:17;;;;;;;5.40;2.60;;;20.00;62.30;;;;;;20888174;28;20229;-80
2021/04/09 13:44:18;;;;;;;7.57;2.07;;;18.90;65.80;;;;;;20936351;28;20416;-80
2021/04/09 13:54:18;;;;;;;3.77;2.00;;;20.90;59.30;;;;;;20977135;28;20081;-80
2021/04/09 14:04:19;;;;;;;4.43;2.50;;;20.20;59.20;;;;;;20942775;28;20037;-80
2021/04/09 14:14:20;;;;;;;5.30;2.20;;;20.20;59.00;;;;;;20913985;28;20048;-80
2021/04/09 14:24:24;;;;;;;6.05;2.35;;;18.50;67.40;;;;;;20951519;28;20123;-80
2021/04/09 14:34:25;;;;;;;5.20;2.22;;;19.00;65.70;;;;;;20997533;28;20036;-80
2021/04/09 14:44:26;;;;;;;6.72;1.80;;;19.60;66.30;;;;;;20915772;28;20032;-80
2021/04/09 14:54:26;;;;;;;8.63;2.17;;;19.20;66.40;;;;;;20955706;28;20029;-80
2021/04/09 15:04:27;;;;;;;7.93;2.90;;;20.10;66.10;;;;;;20990218;28;20077;-80
2021/04/09 15:14:28;;;;;;;2.60;1.20;;;19.60;65.40;;;;;;20926743;28;20041;-79
2021/04/09 15:24:29;;;;;;;3.50;1.20;;;18.60;66.70;;;;;;20911756;23;20052;-76
2021/04/09 15:34:30;;;;;;;6.45;1.38;;;18.10;66.50;;;;;;20889261;28;20033;-77
2021/04/09 15:44:32;;;;;;;6.43;1.88;;;17.90;67.20;;;;;;20843861;28;20026;-77
2021/04/09 15:54:33;;;;;;;7.63;3.30;;;18.70;68.00;;;;;;20822279;28;20033;-77
2021/04/09 16:04:34;;;;;;;5.27;3.27;;;18.20;66.30;;;;;;20808615;28;20034;-76
2021/04/09 16:14:35;;;;;;;2.63;1.30;;;18.20;66.90;;;;;;20836747;28;20503;-77
2021/04/09 16:24:36;;;;;;;4.15;2.03;;;17.60;67.80;;;;;;20827570;28;20037;-76
2021/04/09 16:34:37;;;;;;;5.80;1.92;;;17.20;69.60;;;;;;20843805;28;20129;-77
2021/04/09 16:44:38;;;;;;;3.83;1.63;;;17.00;70.20;;;;;;20839539;28;20514;-76
2021/04/09 16:54:40;;;;;;;7.90;1.57;;;16.90;71.90;;;;;;20794600;28;20040;-77
2021/04/09 17:04:41;;;;;;;4.37;0.90;;;16.70;73.50;;;;;;20754458;28;20037;-77
2021/04/09 17:14:41;;;;;;;4.93;1.50;;;16.50;73.40;;;;;;20755899;28;20381;-78
2021/04/09 17:24:42;;;;;;;10.48;5.00;;;16.20;74.50;;;;;;20755174;28;20034;-77
2021/04/09 17:34:43;;;;;;;7.18;2.60;;;15.90;75.80;;;;;;20753083;28;20032;-78
2021/04/09 17:44:44;;;;;;;4.70;2.13;;;15.40;79.40;;;;;;20753128;28;20050;-77
2021/04/09 17:54:45;;;;;;;12.07;4.85;;;14.50;87.20;;;;;;20795220;28;20112;-77
2021/04/09 18:04:46;;;;;;;14.55;4.53;;;13.30;91.90;;;;;;20835312;28;20044;-76
2021/04/09 18:14:47;;;;;;;7.15;3.17;;;12.50;94.50;;;;;;20809611;28;20022;-76
2021/04/09 18:24:49;;;;;;;4.60;2.13;;;12.20;95.90;;;;;;20755255;28;20057;-77
2021/04/09 18:34:51;;;;;;;6.53;2.45;;;12.20;96.70;;;;;;20754191;28;20034;-76
2021/04/09 18:44:52;;;;;;;15.52;7.60;;;12.00;99.90;;;;;;20749592;28;20038;-77
2021/04/09 18:54:53;;;;;;;6.88;2.55;;;11.90;99.90;;;;;;20773689;28;20030;-76
2021/04/09 19:04:54;;;;;;;6.95;2.35;;;12.10;99.90;;;;;;20826453;28;20087;-77
2021/04/09 19:14:55;;;;;;;13.25;3.60;;;11.80;99.90;;;;;;20827068;28;20032;-76
2021/04/09 19:24:56;;;;;;;12.15;2.55;;;11.70;99.90;;;;;;20825799;28;20033;-77
2021/04/09 19:34:57;;;;;;;9.67;3.47;;;11.20;99.90;;;;;;20826331;28;20045;-76
2021/04/09 19:44:58;;;;;;;12.32;4.03;;;11.00;99.90;;;;;;20792580;28;20037;-76
2021/04/09 19:54:59;;;;;;;7.78;3.90;;;10.20;99.90;;;;;;20778102;28;20056;-76
2021/04/09 20:05:00;;;;;;;11.23;3.15;;;10.10;99.90;;;;;;20761433;28;20048;-76
2021/04/09 20:15:01;;;;;;;9.38;3.75;;;9.70;99.90;;;;;;20788791;28;20045;-74
2021/04/09 20:25:03;;;;;;;5.83;2.83;;;9.40;99.90;;;;;;20904635;28;20115;-76
2021/04/09 20:35:06;;;;;;;7.63;3.15;;;9.30;99.90;;;;;;20910263;28;20036;-77
2021/04/09 20:45:07;;;;;;;7.32;3.08;;;8.80;99.90;;;;;;20882288;28;20080;-75
2021/04/09 20:55:08;;;;;;;8.88;3.35;;;8.40;99.90;;;;;;20810921;28;20076;-75
2021/04/09 21:05:10;;;;;;;9.07;3.30;;;8.20;99.90;;;;;;20819623;28;20451;-76
2021/04/09 21:15:15;;;;;;;7.67;4.13;;;7.90;99.90;;;;;;20898213;28;20126;-75
2021/04/09 21:25:16;;;;;;;30.20;14.23;;;8.10;99.90;;;;;;13580708;23;20104;-78
2021/04/09 21:35:17;;;;;;;9.70;4.23;;;7.50;99.90;;;;;;20893187;28;20045;-79
2021/04/09 21:45:19;;;;;;;6.27;2.80;;;7.60;99.90;;;;;;20899962;28;20042;-80
2021/04/09 21:55:21;;;;;;;6.70;2.60;;;7.40;99.90;;;;;;20914758;28;20866;-80
2021/04/09 22:05:22;;;;;;;4.97;2.30;;;7.20;99.90;;;;;;20842829;28;20033;-79
2021/04/09 22:15:23;;;;;;;7.53;2.90;;;7.70;99.90;;;;;;20860910;28;20052;-79
2021/04/09 22:25:26;;;;;;;9.07;3.60;;;7.70;99.90;;;;;;20841923;28;20069;-79
2021/04/09 22:35:29;;;;;;;40.45;16.83;;;7.80;99.90;;;;;;20835041;28;20512;-79
2021/04/09 22:45:32;;;;;;;7.65;3.50;;;7.40;99.90;;;;;;20848078;28;20069;-79
2021/04/09 22:55:33;;;;;;;4.22;2.13;;;7.60;99.90;;;;;;20832099;28;20500;-79
2021/04/09 23:05:33;;;;;;;9.87;4.37;;;7.90;99.90;;;;;;20844666;28;20116;-79
2021/04/09 23:15:34;;;;;;;13.07;4.43;;;7.90;99.90;;;;;;20843954;28;20045;-79
2021/04/09 23:25:35;;;;;;;6.83;3.27;;;7.60;99.90;;;;;;20841943;28;20414;-80
2021/04/09 23:35:36;;;;;;;5.70;2.90;;;7.40;99.90;;;;;;20853377;28;20484;-80
2021/04/09 23:45:37;;;;;;;13.10;3.10;;;7.60;99.90;;;;;;20852383;28;20461;-79
2021/04/09 23:55:37;;;;;;;7.37;2.43;;;7.40;99.90;;;;;;20837229;28;20045;-80
